Time;durP1;ratioP1;P1;durP2;ratioP2;P2;SDS_P1;SDS_P2;PMS_P1;PMS_P2;Temp;Humidity;BMP_temperature;BMP_pressure;BME280_temperature;BME280_humidity;BME280_pressure;Samples;Min_cycle;Max_cycle;Signal;HPM_P1;HPM_P2
2022/08/19 00:01:22;;;;;;;6.70;5.67;;;19.30;99.90;;;;;;5007757;28;20926;-70
2022/08/19 00:03:49;;;;;;;9.43;5.60;;;19.40;99.90;;;;;;5016233;28;21018;-70
2022/08/19 00:06:16;;;;;;;6.27;5.67;;;19.40;99.90;;;;;;5019361;28;20486;-70
2022/08/19 00:08:44;;;;;;;7.80;5.70;;;19.40;99.90;;;;;;5010784;28;20481;-71
2022/08/19 00:11:12;;;;;;;6.37;5.77;;;19.30;99.90;;;;;;5014515;28;20513;-70
2022/08/19 00:13:39;;;;;;;6.13;5.33;;;19.30;99.90;;;;;;5017610;28;20558;-71
2022/08/19 00:16:07;;;;;;;9.23;5.50;;;19.30;99.90;;;;;;5020401;28;20491;-69
2022/08/19 00:18:34;;;;;;;5.53;4.93;;;19.30;99.90;;;;;;5014196;28;21239;-69
2022/08/19 00:21:01;;;;;;;8.90;6.10;;;19.40;99.90;;;;;;5011301;28;20457;-69
2022/08/19 00:23:29;;;;;;;6.80;5.73;;;19.30;99.90;;;;;;5017275;28;20480;-69
2022/08/19 00:25:57;;;;;;;5.90;5.23;;;19.40;99.90;;;;;;5018691;28;20488;-70
2022/08/19 00:28:24;;;;;;;11.77;8.10;;;19.30;99.90;;;;;;5010545;28;20938;-70
2022/08/19 00:30:53;;;;;;;7.53;5.97;;;19.40;99.90;;;;;;5013053;28;20558;-70
2022/08/19 00:33:20;;;;;;;5.80;5.10;;;19.40;99.90;;;;;;5027666;28;20527;-70
2022/08/19 00:35:46;;;;;;;6.03;4.37;;;19.40;99.90;;;;;;5026248;28;20543;-70
2022/08/19 00:38:13;;;;;;;5.33;4.83;;;19.10;99.90;;;;;;5021660;28;20461;-70
2022/08/19 00:40:43;;;;;;;8.40;5.07;;;18.90;99.90;;;;;;5018591;28;20548;-69
2022/08/19 00:43:12;;;;;;;6.13;4.70;;;18.90;99.90;;;;;;5021272;28;20460;-70
2022/08/19 00:45:43;;;;;;;6.87;6.17;;;18.90;99.90;;;;;;5014727;28;20456;-70
2022/08/19 00:48:10;;;;;;;8.97;5.57;;;18.90;99.90;;;;;;5020848;28;20468;-70
2022/08/19 00:50:40;;;;;;;6.73;6.10;;;19.10;99.90;;;;;;5038219;28;20491;-70
2022/08/19 00:53:07;;;;;;;9.70;5.53;;;19.10;99.90;;;;;;5026129;28;20453;-70
2022/08/19 00:55:34;;;;;;;7.57;6.00;;;19.10;99.90;;;;;;5025545;28;20460;-70
2022/08/19 00:58:06;;;;;;;8.33;6.10;;;19.10;99.90;;;;;;5016887;28;20461;-70
2022/08/19 01:00:37;;;;;;;8.73;7.03;;;19.10;99.90;;;;;;5027847;28;20548;-70
2022/08/19 01:03:05;;;;;;;7.23;5.47;;;19.20;99.90;;;;;;5018013;28;20560;-70
2022/08/19 01:05:32;;;;;;;7.70;5.40;;;19.10;99.90;;;;;;5025596;28;20457;-71
2022/08/19 01:08:03;;;;;;;6.60;5.50;;;19.10;99.90;;;;;;5027489;28;20445;-70
2022/08/19 01:10:32;;;;;;;7.20;5.70;;;19.00;99.90;;;;;;5021664;28;21005;-71
2022/08/19 01:13:01;;;;;;;6.60;5.47;;;18.90;99.90;;;;;;5012546;28;20540;-70
2022/08/19 01:15:33;;;;;;;7.30;5.60;;;18.90;99.90;;;;;;5023864;28;20552;-71
2022/08/19 01:18:05;;;;;;;8.80;6.43;;;18.80;99.90;;;;;;5023320;28;20461;-69
2022/08/19 01:20:34;;;;;;;8.40;5.87;;;18.70;99.90;;;;;;5025862;28;20500;-69
2022/08/19 01:23:03;;;;;;;8.40;5.97;;;18.70;99.90;;;;;;5018158;28;20563;-69
2022/08/19 01:25:33;;;;;;;10.63;5.00;;;18.60;99.90;;;;;;5026451;28;21412;-69
2022/08/19 01:28:00;;;;;;;14.33;6.73;;;18.60;99.90;;;;;;5022638;28;20484;-69
2022/08/19 01:30:33;;;;;;;7.07;5.97;;;18.50;99.90;;;;;;5026970;28;20487;-69
2022/08/19 01:33:00;;;;;;;8.73;6.83;;;18.60;99.90;;;;;;5019781;28;20462;-71
2022/08/19 01:35:30;;;;;;;7.33;6.10;;;18.50;99.90;;;;;;5018932;28;20453;-69
2022/08/19 01:37:59;;;;;;;7.70;5.90;;;18.60;99.90;;;;;;5026886;28;20967;-69
2022/08/19 01:40:30;;;;;;;11.80;6.40;;;18.70;99.90;;;;;;5023814;28;20453;-70
2022/08/19 01:42:58;;;;;;;9.90;5.40;;;18.70;99.90;;;;;;5024039;28;20615;-70
2022/08/19 01:45:27;;;;;;;6.10;5.37;;;18.70;99.90;;;;;;5013024;28;21735;-70
2022/08/19 01:47:54;;;;;;;6.23;5.27;;;18.80;99.90;;;;;;5008776;28;20996;-70
2022/08/19 01:50:21;;;;;;;5.90;4.90;;;18.80;99.90;;;;;;5014880;28;20869;-70
2022/08/19 01:52:48;;;;;;;6.77;5.43;;;18.90;99.90;;;;;;5015125;28;20527;-70
2022/08/19 01:55:18;;;;;;;6.73;5.33;;;18.80;99.90;;;;;;5014764;28;20544;-70
2022/08/19 01:57:54;;;;;;;6.53;5.87;;;18.80;99.90;;;;;;5015392;28;20478;-70
2022/08/19 02:00:24;;;;;;;7.20;5.60;;;18.80;99.90;;;;;;5018470;28;20988;-69
2022/08/19 02:02:50;;;;;;;6.37;5.57;;;18.80;99.90;;;;;;5012492;28;20453;-69
2022/08/19 02:05:18;;;;;;;6.80;5.30;;;18.60;99.90;;;;;;5001551;28;20460;-69
2022/08/19 02:07:45;;;;;;;6.23;5.33;;;18.50;99.90;;;;;;5010038;28;20816;-70
2022/08/19 02:10:17;;;;;;;6.40;5.80;;;18.60;99.90;;;;;;5014843;28;20599;-70
2022/08/19 02:12:44;;;;;;;6.87;5.87;;;18.60;99.90;;;;;;5024555;28;20812;-70
2022/08/19 02:15:12;;;;;;;8.80;5.90;;;18.70;99.90;;;;;;5016744;28;20511;-70
2022/08/19 02:17:39;;;;;;;7.13;5.13;;;18.70;99.90;;;;;;5010859;28;20487;-69
2022/08/19 02:20:07;;;;;;;9.13;5.83;;;18.60;99.90;;;;;;5015946;28;20461;-70
2022/08/19 02:22:41;;;;;;;6.80;5.33;;;18.50;99.90;;;;;;5017725;28;20487;-70
2022/08/19 02:25:09;;;;;;;8.10;5.73;;;18.50;99.90;;;;;;5014492;28;20460;-70
2022/08/19 02:27:36;;;;;;;9.30;6.10;;;18.60;99.90;;;;;;5028916;28;20558;-70
2022/08/19 02:30:06;;;;;;;6.30;4.70;;;18.60;99.90;;;;;;5025298;28;20483;-70
2022/08/19 02:32:34;;;;;;;6.30;5.80;;;18.60;99.90;;;;;;5030042;28;20468;-70
2022/08/19 02:35:01;;;;;;;6.70;5.57;;;18.70;99.90;;;;;;5020494;28;20552;-70
2022/08/19 02:43:35;;;;;;;8.20;5.80;;;18.30;99.90;;;;;;5007651;28;20556;-70
2022/08/19 02:46:02;;;;;;;11.33;6.17;;;18.30;99.90;;;;;;5001349;28;20484;-69
2022/08/19 02:48:34;;;;;;;6.00;5.40;;;18.40;99.90;;;;;;5012618;28;20557;-70
2022/08/19 02:51:01;;;;;;;6.00;5.17;;;18.50;99.90;;;;;;5009506;28;22189;-70
2022/08/19 02:53:28;;;;;;;6.27;5.67;;;18.20;99.90;;;;;;5021854;28;20465;-70
2022/08/19 02:55:55;;;;;;;9.77;6.27;;;18.00;99.90;;;;;;5023262;28;20465;-70
2022/08/19 02:58:23;;;;;;;5.30;4.13;;;17.90;99.90;;;;;;5022011;28;20457;-70
2022/08/19 03:00:52;;;;;;;6.30;5.70;;;17.80;99.90;;;;;;5020019;28;20453;-71
2022/08/19 03:03:19;;;;;;;13.73;6.10;;;18.10;99.90;;;;;;5018912;28;20461;-71
2022/08/19 03:05:48;;;;;;;6.13;4.83;;;18.10;99.90;;;;;;5023639;28;20515;-72
2022/08/19 03:08:16;;;;;;;5.13;4.47;;;18.10;99.90;;;;;;5024779;28;20503;-71
2022/08/19 03:10:45;;;;;;;7.60;6.27;;;18.00;99.90;;;;;;5020630;28;20484;-71
2022/08/19 03:13:13;;;;;;;8.90;6.17;;;18.20;99.90;;;;;;5004413;28;20475;-71
2022/08/19 03:15:42;;;;;;;7.20;4.77;;;18.10;99.90;;;;;;5016758;28;20979;-71
2022/08/19 03:18:09;;;;;;;13.47;6.63;;;18.00;99.90;;;;;;5012522;28;20465;-71
2022/08/19 03:20:41;;;;;;;8.10;6.17;;;18.10;99.90;;;;;;5014877;28;21514;-71
2022/08/19 03:23:09;;;;;;;8.30;6.00;;;18.20;99.90;;;;;;5014381;28;20462;-71
2022/08/19 03:25:39;;;;;;;8.37;7.40;;;18.20;99.90;;;;;;5014742;28;20999;-71
2022/08/19 03:28:07;;;;;;;12.10;7.07;;;18.20;99.90;;;;;;5014233;28;20608;-72
2022/08/19 03:30:34;;;;;;;23.33;9.07;;;17.80;99.90;;;;;;5006666;28;20477;-72
2022/08/19 03:33:01;;;;;;;6.90;5.90;;;17.80;99.90;;;;;;5015299;28;20567;-72
2022/08/19 03:35:28;;;;;;;5.83;4.37;;;17.70;99.90;;;;;;5014966;28;20635;-71
2022/08/19 03:37:56;;;;;;;9.03;5.40;;;17.70;99.90;;;;;;5004651;28;20970;-71
2022/08/19 03:40:25;;;;;;;8.27;6.33;;;17.60;99.90;;;;;;5021691;28;21268;-72
2022/08/19 03:42:52;;;;;;;9.97;5.67;;;17.60;99.90;;;;;;5019023;28;20470;-72
2022/08/19 03:45:19;;;;;;;12.67;7.90;;;17.80;99.90;;;;;;5020859;28;20467;-71
2022/08/19 03:47:46;;;;;;;12.60;6.63;;;18.00;99.90;;;;;;5013408;28;20489;-71
2022/08/19 03:50:13;;;;;;;11.40;7.07;;;18.00;99.90;;;;;;5019505;28;20473;-72
2022/08/19 03:52:40;;;;;;;8.50;6.03;;;18.20;99.90;;;;;;5007341;28;20546;-71
2022/08/19 03:55:08;;;;;;;17.43;7.00;;;18.10;99.90;;;;;;5009749;28;20465;-71
2022/08/19 03:57:36;;;;;;;15.20;8.67;;;18.00;99.90;;;;;;5011510;28;20485;-71
2022/08/19 04:00:06;;;;;;;10.60;6.80;;;18.00;99.90;;;;;;5010987;28;20500;-72
2022/08/19 04:02:33;;;;;;;10.03;6.73;;;18.00;99.90;;;;;;5012379;28;20461;-71
2022/08/19 04:05:00;;;;;;;12.17;7.73;;;18.00;99.90;;;;;;5015442;28;20501;-71
2022/08/19 04:07:27;;;;;;;21.00;7.93;;;17.70;99.90;;;;;;5025772;28;20483;-72
2022/08/19 04:09:54;;;;;;;12.87;7.73;;;17.90;99.90;;;;;;5016593;28;20564;-71
2022/08/19 04:12:21;;;;;;;13.17;6.90;;;17.90;99.90;;;;;;5020258;28;21116;-71
2022/08/19 04:14:49;;;;;;;17.03;7.73;;;18.00;99.90;;;;;;5016600;28;20468;-71
2022/08/19 04:17:16;;;;;;;10.07;6.80;;;18.00;99.90;;;;;;5022124;28;20818;-71
2022/08/19 04:19:44;;;;;;;13.53;7.03;;;18.00;99.90;;;;;;5016440;28;20485;-71
2022/08/19 04:22:11;;;;;;;24.20;8.40;;;18.00;99.90;;;;;;5016642;28;20469;-70
2022/08/19 04:24:38;;;;;;;20.70;7.60;;;17.90;99.90;;;;;;5010935;28;20736;-71
2022/08/19 04:27:06;;;;;;;26.40;9.47;;;17.90;99.90;;;;;;5019822;28;20579;-70
2022/08/19 04:29:34;;;;;;;11.23;7.97;;;17.90;99.90;;;;;;5016321;28;20461;-72
2022/08/19 04:32:03;;;;;;;24.23;6.77;;;17.90;99.90;;;;;;5021257;28;20452;-71
2022/08/19 04:34:30;;;;;;;11.00;6.00;;;17.70;99.90;;;;;;5024422;28;20449;-71
2022/08/19 04:36:59;;;;;;;13.63;6.50;;;17.50;99.90;;;;;;5022900;28;20493;-71
2022/08/19 04:42:38;;;;;;;13.83;7.60;;;17.60;99.90;;;;;;5009064;28;20456;-71
2022/08/19 04:45:03;;;;;;;10.57;7.87;;;17.90;99.90;;;;;;5022717;28;20457;-71
2022/08/19 04:47:32;;;;;;;13.00;7.40;;;17.80;99.90;;;;;;5025046;28;20546;-70
2022/08/19 04:49:59;;;;;;;13.10;8.77;;;17.80;99.90;;;;;;5026464;28;20492;-71
2022/08/19 04:52:26;;;;;;;8.03;6.70;;;17.90;99.90;;;;;;5025634;28;20938;-71
2022/08/19 04:54:55;;;;;;;13.77;7.10;;;17.80;99.90;;;;;;5017733;28;20461;-71
2022/08/19 04:57:22;;;;;;;17.03;9.17;;;17.90;99.90;;;;;;5030348;28;20488;-71
2022/08/19 04:59:49;;;;;;;27.83;9.33;;;18.00;99.90;;;;;;5025515;28;20527;-70
2022/08/19 05:02:16;;;;;;;30.37;11.10;;;18.10;99.90;;;;;;5027767;28;20925;-71
2022/08/19 05:04:44;;;;;;;27.37;10.83;;;18.30;99.90;;;;;;5015259;28;20452;-70
2022/08/19 05:07:11;;;;;;;23.77;9.20;;;18.30;99.90;;;;;;5022674;28;20539;-70
2022/08/19 05:09:38;;;;;;;44.67;11.10;;;18.50;99.90;;;;;;5026628;28;20492;-70
2022/08/19 05:12:06;;;;;;;20.00;9.23;;;18.50;99.90;;;;;;5026054;28;20496;-70
2022/08/19 05:14:33;;;;;;;30.77;9.70;;;18.60;99.90;;;;;;5022948;28;20849;-70
2022/08/19 05:17:01;;;;;;;24.43;10.63;;;18.60;99.90;;;;;;5025588;28;20470;-70
2022/08/19 05:24:58;;;;;;;23.57;10.47;;;18.90;99.90;;;;;;5025930;28;20448;-70
2022/08/19 05:27:25;;;;;;;19.50;8.67;;;19.10;99.90;;;;;;5023927;28;21015;-71
2022/08/19 05:29:52;;;;;;;23.47;10.50;;;19.30;99.90;;;;;;5026266;28;20540;-71
2022/08/19 05:32:19;;;;;;;26.50;9.40;;;19.30;99.90;;;;;;5023899;28;20459;-70
2022/08/19 05:34:46;;;;;;;25.87;10.10;;;19.00;99.90;;;;;;5018821;28;20455;-70
2022/08/19 05:37:14;;;;;;;23.70;11.77;;;18.80;99.90;;;;;;5027843;28;20468;-70
2022/08/19 05:39:41;;;;;;;28.43;11.53;;;18.80;99.90;;;;;;5025498;28;21101;-70
2022/08/19 05:42:11;;;;;;;36.73;13.43;;;18.90;99.90;;;;;;5021583;28;20506;-70
2022/08/19 05:44:41;;;;;;;18.27;9.97;;;19.10;99.90;;;;;;5023184;28;20476;-70
2022/08/19 05:47:09;;;;;;;17.20;9.63;;;19.60;99.90;;;;;;5025741;28;20479;-70
2022/08/19 05:49:37;;;;;;;18.97;11.63;;;19.90;99.90;;;;;;5023837;28;20471;-70
2022/08/19 05:52:05;;;;;;;19.73;9.67;;;20.30;99.90;;;;;;5029723;28;20481;-70
2022/08/19 05:54:33;;;;;;;16.43;8.47;;;20.90;99.90;;;;;;5024712;28;20441;-69
2022/08/19 05:57:02;;;;;;;13.83;8.90;;;21.40;99.90;;;;;;5025653;28;20485;-70
2022/08/19 05:59:30;;;;;;;15.60;8.50;;;21.80;99.90;;;;;;5028861;28;20445;-70
2022/08/19 06:01:57;;;;;;;24.30;9.50;;;21.90;99.90;;;;;;5020684;28;20460;-70
2022/08/19 06:04:25;;;;;;;19.70;9.83;;;21.90;99.90;;;;;;5013784;28;20469;-70
2022/08/19 06:06:53;;;;;;;22.77;9.33;;;21.90;99.90;;;;;;5023010;28;20552;-70
2022/08/19 06:09:21;;;;;;;19.90;8.80;;;22.20;99.90;;;;;;5024698;28;20450;-70
2022/08/19 06:11:54;;;;;;;18.67;10.90;;;22.20;99.90;;;;;;5018743;28;20675;-70
2022/08/19 06:14:22;;;;;;;13.10;10.87;;;22.20;99.90;;;;;;5022400;28;20871;-70
2022/08/19 06:16:52;;;;;;;18.20;11.30;;;22.00;99.90;;;;;;5023260;28;20475;-70
2022/08/19 06:19:21;;;;;;;18.90;10.93;;;22.10;99.90;;;;;;5015784;28;20473;-70
2022/08/19 06:21:51;;;;;;;25.33;11.60;;;22.20;99.90;;;;;;5019557;28;20508;-70
2022/08/19 06:24:20;;;;;;;25.87;11.40;;;22.00;99.90;;;;;;5028726;28;20475;-70
2022/08/19 06:26:50;;;;;;;16.23;11.67;;;22.20;99.90;;;;;;5027130;28;21181;-70
2022/08/19 06:29:18;;;;;;;22.87;12.20;;;22.20;99.90;;;;;;5025744;28;20542;-70
2022/08/19 06:31:49;;;;;;;20.10;12.20;;;22.20;99.90;;;;;;5029009;28;20476;-70
2022/08/19 06:34:17;;;;;;;18.90;12.30;;;22.50;99.90;;;;;;5024977;28;20465;-70
2022/08/19 06:36:47;;;;;;;16.43;12.40;;;23.00;99.90;;;;;;5029446;28;20569;-70
2022/08/19 06:39:16;;;;;;;21.50;12.23;;;23.50;99.90;;;;;;5031933;28;20546;-70
2022/08/19 06:41:47;;;;;;;16.40;12.10;;;24.00;99.90;;;;;;5026163;28;20527;-71
2022/08/19 06:44:16;;;;;;;21.10;11.43;;;24.50;99.90;;;;;;5019439;28;20458;-71
2022/08/19 06:46:43;;;;;;;16.47;11.53;;;24.90;99.90;;;;;;5030239;28;20474;-71
2022/08/19 06:49:13;;;;;;;17.90;12.03;;;25.00;99.90;;;;;;5023780;28;20459;-70
2022/08/19 06:51:40;;;;;;;18.50;10.40;;;25.20;99.90;;;;;;5026731;28;20487;-71
2022/08/19 06:54:07;;;;;;;12.90;11.30;;;25.00;99.90;;;;;;5023672;28;20452;-71
2022/08/19 06:56:34;;;;;;;18.93;11.00;;;25.10;99.90;;;;;;5019783;28;20975;-71
2022/08/19 06:59:02;;;;;;;14.67;10.20;;;25.40;99.90;;;;;;5028955;28;20458;-71
2022/08/19 07:01:30;;;;;;;22.27;13.47;;;25.90;99.90;;;;;;5028950;28;21180;-71
2022/08/19 07:03:57;;;;;;;14.77;11.50;;;26.30;99.90;;;;;;5035402;28;20446;-71
2022/08/19 07:06:25;;;;;;;20.83;13.00;;;27.00;99.90;;;;;;5029576;28;20470;-71
2022/08/19 07:08:52;;;;;;;17.10;12.10;;;26.70;99.90;;;;;;5026991;28;20894;-71
2022/08/19 07:11:20;;;;;;;21.17;13.43;;;26.20;99.90;;;;;;5027493;28;20490;-71
2022/08/19 07:13:48;;;;;;;16.50;10.67;;;26.30;99.90;;;;;;5030805;28;20478;-71
2022/08/19 07:16:20;;;;;;;13.67;11.73;;;26.10;99.90;;;;;;5031369;28;20873;-71
2022/08/19 07:18:49;;;;;;;17.93;10.73;;;25.80;99.90;;;;;;5030188;28;20459;-71
2022/08/19 07:21:18;;;;;;;19.00;12.70;;;25.90;99.90;;;;;;5028676;28;20463;-71
2022/08/19 07:23:45;;;;;;;18.30;11.67;;;26.10;99.90;;;;;;5037031;28;20443;-71
2022/08/19 07:26:16;;;;;;;14.90;10.37;;;26.90;99.90;;;;;;5024680;28;20582;-71
2022/08/19 07:28:44;;;;;;;17.17;9.87;;;27.20;99.90;;;;;;5019119;28;20565;-71
2022/08/19 07:31:13;;;;;;;10.37;9.20;;;27.40;99.90;;;;;;5016655;28;20504;-71
2022/08/19 07:33:40;;;;;;;14.43;10.33;;;27.30;99.90;;;;;;5023189;28;20579;-71
2022/08/19 07:36:11;;;;;;;16.63;10.30;;;26.90;99.90;;;;;;5029159;28;20493;-71
2022/08/19 07:38:40;;;;;;;15.27;9.30;;;26.80;99.90;;;;;;5044993;28;20985;-71
2022/08/19 07:41:07;;;;;;;10.37;8.23;;;26.60;99.90;;;;;;5036995;28;20452;-71
2022/08/19 07:43:34;;;;;;;12.17;9.33;;;26.50;99.90;;;;;;5034550;28;20445;-71
2022/08/19 07:46:01;;;;;;;12.33;8.30;;;26.50;99.90;;;;;;5020408;28;20474;-71
2022/08/19 07:48:29;;;;;;;13.23;8.80;;;26.10;99.90;;;;;;5034249;28;20461;-71
2022/08/19 07:50:59;;;;;;;10.57;6.67;;;25.90;99.90;;;;;;5029566;28;20549;-71
2022/08/19 07:53:27;;;;;;;9.60;7.17;;;25.90;99.90;;;;;;5029651;28;20962;-71
2022/08/19 07:55:54;;;;;;;8.77;6.90;;;26.10;99.90;;;;;;5026778;28;20545;-71
2022/08/19 07:58:23;;;;;;;9.93;6.70;;;25.90;99.90;;;;;;5019115;28;20466;-71
2022/08/19 08:00:52;;;;;;;10.33;7.10;;;26.40;99.90;;;;;;5031372;28;20548;-71
2022/08/19 08:09:10;;;;;;;10.20;6.77;;;26.40;99.90;;;;;;5024414;28;20864;-71
2022/08/19 08:09:17;;;;;;;7.80;6.87;;;27.10;99.90;;;;;;5023232;28;20451;-71
2022/08/19 08:11:48;;;;;;;15.90;8.83;;;28.20;99.90;;;;;;5024263;28;20480;-71
2022/08/19 08:14:17;;;;;;;9.03;8.00;;;28.20;99.90;;;;;;5021776;28;20464;-71
2022/08/19 08:16:45;;;;;;;11.03;7.23;;;28.30;99.90;;;;;;5020713;28;20533;-71
2022/08/19 08:19:14;;;;;;;8.90;7.90;;;28.00;99.90;;;;;;5023096;28;20898;-71
2022/08/19 08:21:42;;;;;;;17.33;9.47;;;27.40;99.90;;;;;;5027682;28;20528;-71
2022/08/19 08:24:12;;;;;;;10.43;7.40;;;27.80;99.90;;;;;;5027104;28;20441;-71
2022/08/19 08:26:39;;;;;;;14.13;8.10;;;28.50;99.90;;;;;;5028730;28;20917;-71
2022/08/19 08:29:07;;;;;;;9.30;8.30;;;29.00;99.90;;;;;;5022339;28;21128;-71
2022/08/19 08:31:34;;;;;;;12.83;8.73;;;28.70;99.90;;;;;;5026628;28;20477;-71
2022/08/19 08:34:01;;;;;;;10.43;9.20;;;28.90;99.90;;;;;;5033550;28;20779;-71
2022/08/19 08:36:28;;;;;;;8.90;8.00;;;29.40;99.90;;;;;;5026747;28;20468;-72
2022/08/19 08:38:56;;;;;;;10.90;9.23;;;30.00;99.90;;;;;;5030932;28;20995;-72
2022/08/19 08:41:32;;;;;;;9.97;7.50;;;29.70;99.90;;;;;;5026551;28;20448;-71
2022/08/19 08:44:00;;;;;;;13.30;11.20;;;30.10;99.90;;;;;;5022203;28;20444;-71
2022/08/19 08:46:37;;;;;;;12.93;9.10;;;30.20;99.90;;;;;;5020608;28;20484;-72
2022/08/19 08:49:13;;;;;;;12.97;9.87;;;30.90;99.90;;;;;;5029560;28;20448;-72
2022/08/19 08:51:44;;;;;;;18.73;9.63;;;30.70;99.90;;;;;;5023729;28;20480;-72
2022/08/19 08:54:14;;;;;;;14.10;9.33;;;31.00;99.90;;;;;;5025900;28;20560;-71
2022/08/19 08:56:44;;;;;;;12.97;9.63;;;31.00;99.90;;;;;;5029827;28;20473;-71
2022/08/19 08:59:17;;;;;;;12.50;9.97;;;31.60;99.90;;;;;;5028561;28;20472;-70
2022/08/19 09:01:44;;;;;;;17.00;10.00;;;32.00;99.90;;;;;;5028675;28;20440;-71
2022/08/19 09:04:13;;;;;;;21.63;11.20;;;32.40;99.90;;;;;;5024603;28;20441;-71
2022/08/19 09:06:50;;;;;;;10.50;9.40;;;31.60;99.90;;;;;;5025063;28;20574;-71
2022/08/19 09:09:20;;;;;;;8.97;7.30;;;31.40;99.90;;;;;;5028081;28;20462;-71
2022/08/19 09:12:05;;;;;;;9.53;8.60;;;30.20;99.90;;;;;;5020061;28;20486;-70
2022/08/19 09:14:40;;;;;;;8.20;6.80;;;30.80;99.90;;;;;;5020150;28;20559;-71
2022/08/19 09:17:08;;;;;;;8.37;6.80;;;31.10;99.90;;;;;;5021273;28;21033;-71
2022/08/19 09:19:37;;;;;;;8.70;7.80;;;30.90;99.90;;;;;;5034659;28;20544;-71
2022/08/19 09:22:05;;;;;;;11.07;7.30;;;31.20;99.90;;;;;;5027328;28;20529;-71
2022/08/19 09:24:31;;;;;;;11.63;7.83;;;31.40;99.90;;;;;;5029518;28;20452;-72
2022/08/19 09:27:00;;;;;;;10.57;9.47;;;32.40;99.90;;;;;;5019854;28;21088;-71
2022/08/19 09:29:27;;;;;;;8.70;7.80;;;32.00;99.90;;;;;;5029322;28;21101;-71
2022/08/19 09:31:54;;;;;;;11.83;9.60;;;32.00;99.90;;;;;;5021114;28;20483;-71
2022/08/19 09:34:21;;;;;;;18.33;8.80;;;31.70;99.90;;;;;;5028930;28;20452;-71
2022/08/19 09:36:52;;;;;;;8.20;7.50;;;31.30;99.90;;;;;;5025702;28;21055;-71
2022/08/19 09:39:20;;;;;;;10.10;8.70;;;31.90;99.90;;;;;;5032294;28;20539;-72
2022/08/19 09:41:46;;;;;;;9.70;8.80;;;32.70;99.90;;;;;;5024369;28;20464;-71
2022/08/19 09:44:14;;;;;;;9.93;7.87;;;33.20;99.90;;;;;;5024037;28;20444;-72
2022/08/19 09:46:41;;;;;;;8.93;7.60;;;33.10;99.90;;;;;;5023339;28;20465;-72
2022/08/19 09:49:08;;;;;;;6.77;6.10;;;33.00;99.90;;;;;;5023376;28;20449;-71
2022/08/19 09:51:35;;;;;;;13.40;9.00;;;32.70;99.60;;;;;;5026099;28;20531;-71
2022/08/19 09:54:03;;;;;;;10.93;9.73;;;31.40;99.90;;;;;;5027785;28;20583;-71
2022/08/19 09:56:32;;;;;;;9.83;8.83;;;30.10;99.90;;;;;;5029448;28;20498;-72
2022/08/19 09:59:00;;;;;;;10.20;8.17;;;29.40;99.90;;;;;;5031743;28;20536;-70
2022/08/19 10:01:30;;;;;;;9.30;8.27;;;28.90;99.90;;;;;;5029910;28;20467;-70
2022/08/19 10:03:59;;;;;;;12.93;8.70;;;29.20;99.90;;;;;;5030082;28;20484;-71
2022/08/19 10:06:32;;;;;;;13.20;7.43;;;30.30;99.90;;;;;;5031670;28;20543;-70
2022/08/19 10:08:59;;;;;;;8.97;8.07;;;31.10;99.90;;;;;;5028157;28;20460;-71
2022/08/19 10:11:27;;;;;;;10.27;8.53;;;31.30;99.90;;;;;;5028974;28;20448;-71
2022/08/19 10:13:54;;;;;;;9.83;8.20;;;32.50;99.90;;;;;;5036589;28;20460;-71
2022/08/19 10:16:24;;;;;;;8.97;7.90;;;33.40;98.90;;;;;;5031116;28;20566;-71
2022/08/19 10:18:53;;;;;;;8.47;7.27;;;33.60;98.30;;;;;;5027430;28;20472;-71
2022/08/19 10:21:22;;;;;;;9.70;8.60;;;34.70;97.50;;;;;;5031040;28;20550;-71
2022/08/19 10:23:54;;;;;;;10.60;8.77;;;35.10;96.40;;;;;;5033153;28;20448;-71
2022/08/19 10:26:23;;;;;;;11.20;8.90;;;34.20;95.40;;;;;;5032962;28;20479;-71
2022/08/19 10:28:50;;;;;;;11.60;8.83;;;33.20;96.10;;;;;;5031869;28;20473;-71
2022/08/19 10:31:20;;;;;;;10.13;9.13;;;32.20;97.70;;;;;;5022071;28;20455;-71
2022/08/19 10:33:48;;;;;;;9.70;8.80;;;31.00;98.70;;;;;;5027567;28;20546;-71
2022/08/19 10:36:19;;;;;;;9.60;7.40;;;30.60;99.90;;;;;;5030304;28;20470;-71
2022/08/19 10:38:49;;;;;;;9.37;7.97;;;30.60;99.90;;;;;;5027414;28;20457;-71
2022/08/19 10:41:18;;;;;;;12.93;9.60;;;30.80;99.90;;;;;;5034006;28;21019;-71
2022/08/19 10:43:46;;;;;;;11.10;9.90;;;30.80;99.90;;;;;;5036142;28;20535;-71
2022/08/19 10:46:14;;;;;;;14.10;10.37;;;31.50;99.90;;;;;;5032637;28;20487;-71
2022/08/19 10:48:42;;;;;;;10.00;9.00;;;31.40;99.20;;;;;;5026349;28;20451;-71
2022/08/19 10:53:57;;;;;;;11.10;9.80;;;32.60;99.70;;;;;;5030052;28;20555;-71
2022/08/19 10:59:13;;;;;;;8.60;7.67;;;32.60;95.90;;;;;;5030327;28;20428;-71
2022/08/19 11:01:41;;;;;;;9.33;8.33;;;30.90;96.70;;;;;;5023562;28;20451;-71
2022/08/19 11:04:10;;;;;;;8.20;6.83;;;30.60;97.90;;;;;;5028387;28;20952;-71
2022/08/19 11:06:38;;;;;;;9.10;6.17;;;31.00;97.10;;;;;;5025473;28;20495;-71
2022/08/19 11:09:06;;;;;;;8.47;5.87;;;32.50;95.00;;;;;;5031346;28;20441;-71
2022/08/19 11:11:39;;;;;;;9.87;7.00;;;33.10;95.00;;;;;;5031944;28;20439;-72
2022/08/19 11:14:06;;;;;;;12.03;7.20;;;33.60;93.50;;;;;;5027437;28;20476;-71
2022/08/19 11:16:32;;;;;;;8.47;6.87;;;34.10;94.00;;;;;;5025567;28;20479;-71
2022/08/19 11:19:00;;;;;;;8.30;7.50;;;34.70;92.20;;;;;;5029932;28;20944;-70
2022/08/19 11:21:30;;;;;;;8.20;7.10;;;34.50;91.40;;;;;;5022200;28;20547;-71
2022/08/19 11:23:59;;;;;;;9.63;6.00;;;34.40;92.00;;;;;;5032305;28;20450;-71
2022/08/19 11:26:29;;;;;;;10.13;6.47;;;34.60;91.20;;;;;;5030723;28;20478;-71
2022/08/19 11:28:56;;;;;;;10.60;6.43;;;34.60;90.20;;;;;;5025542;28;21125;-71
2022/08/19 11:31:25;;;;;;;8.20;6.43;;;34.90;89.80;;;;;;5018316;28;20453;-71
2022/08/19 11:33:53;;;;;;;7.07;6.17;;;34.90;86.80;;;;;;5028688;28;20487;-71
2022/08/19 11:36:21;;;;;;;5.90;5.40;;;35.30;85.60;;;;;;5033443;28;20466;-73
2022/08/19 11:38:48;;;;;;;8.27;5.23;;;35.80;80.20;;;;;;5017471;28;20973;-71
2022/08/19 11:41:17;;;;;;;6.97;6.33;;;35.30;81.10;;;;;;5021395;28;20474;-71
2022/08/19 11:43:45;;;;;;;8.97;7.03;;;35.60;80.60;;;;;;5020267;28;20896;-71
2022/08/19 11:46:15;;;;;;;9.83;8.20;;;35.30;80.30;;;;;;5008106;28;20489;-71
2022/08/19 11:48:42;;;;;;;12.00;8.27;;;35.60;83.00;;;;;;5024963;28;20464;-72
2022/08/19 11:51:11;;;;;;;8.20;7.30;;;35.10;83.20;;;;;;5028677;28;20441;-72
2022/08/19 11:53:39;;;;;;;11.10;7.57;;;35.40;84.30;;;;;;5027647;28;20587;-70
2022/08/19 11:56:07;;;;;;;16.10;7.57;;;36.30;81.80;;;;;;5027120;28;20467;-71
2022/08/19 11:58:35;;;;;;;10.03;9.10;;;36.10;79.80;;;;;;5029124;28;20550;-71
2022/08/19 12:01:07;;;;;;;12.67;8.67;;;36.20;78.30;;;;;;5032693;28;20452;-72
2022/08/19 12:03:34;;;;;;;7.90;6.63;;;35.10;78.30;;;;;;5028581;28;20468;-71
2022/08/19 12:06:05;;;;;;;8.80;7.70;;;34.90;82.00;;;;;;5021823;28;20469;-72
2022/08/19 12:08:32;;;;;;;9.20;8.30;;;35.10;77.30;;;;;;5007400;28;21184;-71
2022/08/19 12:11:00;;;;;;;9.00;8.20;;;35.90;77.00;;;;;;5019429;28;20484;-72
2022/08/19 12:13:28;;;;;;;9.17;7.97;;;37.30;74.80;;;;;;5023800;28;20587;-71
2022/08/19 12:15:55;;;;;;;7.80;7.10;;;36.90;72.70;;;;;;5022311;28;20468;-71
2022/08/19 12:18:24;;;;;;;11.60;9.67;;;36.10;74.70;;;;;;5027448;28;21885;-71
2022/08/19 12:20:52;;;;;;;9.80;8.80;;;35.90;73.40;;;;;;5014502;28;20523;-71
2022/08/19 12:23:19;;;;;;;8.00;7.20;;;35.80;73.60;;;;;;5023293;28;20445;-71
2022/08/19 12:25:49;;;;;;;10.00;6.73;;;35.80;76.00;;;;;;5026970;28;21852;-72
2022/08/19 12:28:17;;;;;;;16.43;8.07;;;36.00;76.70;;;;;;5025702;28;20453;-71
2022/08/19 12:30:44;;;;;;;8.73;7.83;;;37.20;74.70;;;;;;5023909;28;20519;-71
2022/08/19 12:33:11;;;;;;;7.60;6.93;;;37.90;70.80;;;;;;5028455;28;20951;-71
2022/08/19 12:35:42;;;;;;;8.70;7.87;;;36.80;67.30;;;;;;5020982;28;20857;-71
2022/08/19 12:38:08;;;;;;;9.00;8.10;;;35.20;72.20;;;;;;5025621;28;21025;-72
2022/08/19 12:40:35;;;;;;;9.10;8.20;;;35.20;71.90;;;;;;5019471;28;20465;-71
2022/08/19 12:43:02;;;;;;;11.27;8.57;;;34.00;75.60;;;;;;5026122;28;21213;-71
2022/08/19 12:45:29;;;;;;;8.30;7.50;;;34.00;74.70;;;;;;5028668;28;20544;-72
2022/08/19 12:47:56;;;;;;;11.30;8.97;;;33.80;74.80;;;;;;5016017;28;20473;-72
2022/08/19 12:50:23;;;;;;;8.70;7.70;;;34.30;73.60;;;;;;5022123;28;20843;-72
2022/08/19 12:52:51;;;;;;;7.00;6.40;;;35.00;71.90;;;;;;5028458;28;20488;-71
2022/08/19 12:55:19;;;;;;;7.30;5.97;;;34.90;71.00;;;;;;5028028;28;20459;-72
2022/08/19 12:57:48;;;;;;;6.50;5.90;;;34.80;67.70;;;;;;5020203;28;20549;-71
2022/08/19 13:00:18;;;;;;;7.07;5.70;;;35.50;66.40;;;;;;5024521;28;21225;-72
2022/08/19 13:02:47;;;;;;;8.93;5.90;;;36.40;64.00;;;;;;5021166;28;20590;-72
2022/08/19 13:05:16;;;;;;;5.50;5.10;;;36.80;62.60;;;;;;5029438;28;20528;-72
2022/08/19 13:07:44;;;;;;;6.00;5.40;;;36.10;62.20;;;;;;5022198;28;20888;-72
2022/08/19 13:10:15;;;;;;;6.43;5.83;;;36.20;61.70;;;;;;5030842;28;20452;-72